Time;durP1;ratioP1;P1;durP2;ratioP2;P2;SDS_P1;SDS_P2;PMS_P1;PMS_P2;Temp;Humidity;BMP_temperature;BMP_pressure;BME280_temperature;BME280_humidity;BME280_pressure;Samples;Min_cycle;Max_cycle;Signal;HPM_P1;HPM_P2
2024/01/24 20:43:31;;;;;;;10.70;5.68;;;;;;;20.01;55.95;99296.50;5044954;28;20153;-54
2024/01/24 20:45:58;;;;;;;14.02;5.70;;;;;;;20.03;55.66;99283.22;5044738;28;20124;-54
2024/01/24 20:48:25;;;;;;;10.57;5.22;;;;;;;20.08;55.68;99281.19;5044683;28;20583;-54
2024/01/24 20:50:52;;;;;;;10.38;5.18;;;;;;;20.15;55.57;99281.81;5045143;28;20088;-54
2024/01/24 20:53:19;;;;;;;10.23;5.20;;;;;;;20.22;55.29;99273.53;5044241;28;20053;-54
2024/01/24 20:55:46;;;;;;;10.98;5.13;;;;;;;20.29;55.28;99257.38;5045901;27;20407;-54
2024/01/24 20:58:13;;;;;;;10.48;5.40;;;;;;;20.37;54.98;99271.09;5044731;28;20144;-55
2024/01/24 21:00:40;;;;;;;10.48;5.32;;;;;;;20.43;54.93;99265.53;5025291;28;20042;-54
2024/01/24 21:03:09;;;;;;;11.65;5.85;;;;;;;20.49;54.73;99248.50;5024813;28;20053;-53
2024/01/24 21:05:35;;;;;;;9.85;5.45;;;;;;;20.54;54.45;99244.72;5024526;28;20049;-55
2024/01/24 21:08:02;;;;;;;9.48;5.20;;;;;;;20.59;54.29;99242.75;5021617;28;20055;-55
2024/01/24 21:10:28;;;;;;;10.93;5.60;;;;;;;20.64;54.24;99246.03;5024042;28;20153;-54
2024/01/24 21:12:55;;;;;;;10.20;5.20;;;;;;;20.68;54.05;99233.50;5009524;28;20129;-55
2024/01/24 21:15:22;;;;;;;9.00;5.00;;;;;;;20.72;54.03;99250.94;5019412;28;20042;-54
2024/01/24 21:17:51;;;;;;;9.48;4.95;;;;;;;20.76;53.91;99267.56;5004687;28;20148;-54
2024/01/24 21:20:18;;;;;;;10.52;5.57;;;;;;;20.79;53.73;99270.06;5011481;28;20501;-54
2024/01/24 21:22:47;;;;;;;10.57;5.13;;;;;;;20.83;53.66;99269.00;5012670;28;20054;-55
2024/01/24 21:25:14;;;;;;;8.68;5.03;;;;;;;20.85;53.49;99280.38;5015745;28;20167;-56
2024/01/24 21:27:41;;;;;;;9.38;5.35;;;;;;;20.87;53.54;99294.41;5020166;28;20111;-54
2024/01/24 21:30:08;;;;;;;9.25;5.15;;;;;;;20.89;53.47;99258.09;5022295;28;20146;-55
2024/01/24 21:32:35;;;;;;;9.57;5.10;;;;;;;20.92;53.41;99254.44;5024035;28;20060;-55
2024/01/24 21:35:04;;;;;;;9.70;5.05;;;;;;;20.93;53.48;99261.47;5008725;28;20057;-55
2024/01/24 21:37:32;;;;;;;8.48;4.80;;;;;;;20.94;53.38;99266.69;5023293;28;20053;-54
2024/01/24 21:39:59;;;;;;;9.45;5.20;;;;;;;20.97;53.42;99257.72;5024612;28;20132;-54
2024/01/24 21:42:26;;;;;;;9.82;4.95;;;;;;;20.98;53.37;99246.22;5023488;28;20100;-55
2024/01/24 21:44:53;;;;;;;10.13;4.85;;;;;;;20.99;53.31;99243.47;5023244;28;20129;-54
2024/01/24 21:47:20;;;;;;;8.63;4.78;;;;;;;21.00;53.27;99229.31;5018105;28;20580;-57
2024/01/24 21:49:46;;;;;;;9.30;5.10;;;;;;;21.01;53.23;99241.63;5021760;28;20049;-54
2024/01/24 21:52:15;;;;;;;9.40;4.93;;;;;;;21.02;53.18;99250.44;5023261;28;20045;-54
2024/01/24 21:54:43;;;;;;;8.95;4.57;;;;;;;21.02;53.30;99248.63;5010377;28;20048;-54
2024/01/24 21:57:09;;;;;;;9.10;4.90;;;;;;;21.04;53.17;99235.31;5010082;28;20107;-54
2024/01/24 21:59:36;;;;;;;10.00;5.03;;;;;;;21.04;53.13;99238.81;5009434;28;20042;-55
2024/01/24 22:02:04;;;;;;;8.70;4.75;;;;;;;21.03;53.14;99233.59;5009704;28;20571;-54
2024/01/24 22:04:30;;;;;;;10.05;5.00;;;;;;;21.03;53.07;99234.47;5009563;28;20074;-54
2024/01/24 22:06:57;;;;;;;9.25;5.00;;;;;;;21.02;53.02;99227.44;5009860;28;20141;-54
2024/01/24 22:09:25;;;;;;;7.68;4.60;;;;;;;21.02;53.29;99230.09;5009532;28;20133;-54
2024/01/24 22:11:53;;;;;;;8.10;4.60;;;;;;;21.02;53.21;99222.16;5009299;28;20058;-54
2024/01/24 22:14:20;;;;;;;7.95;4.50;;;;;;;21.01;53.15;99222.22;5009597;28;20124;-53
2024/01/24 22:16:47;;;;;;;8.65;4.50;;;;;;;20.99;53.01;99227.56;5009882;28;20140;-54
2024/01/24 22:19:14;;;;;;;10.75;4.82;;;;;;;21.00;53.13;99223.16;5009911;28;20042;-54
2024/01/24 22:21:41;;;;;;;9.82;4.75;;;;;;;20.99;53.28;99221.44;5010349;28;20464;-54
2024/01/24 22:24:08;;;;;;;10.15;4.63;;;;;;;20.98;53.35;99215.28;5010127;28;20072;-54
2024/01/24 22:26:36;;;;;;;9.35;4.65;;;;;;;20.98;53.33;99220.59;5010195;28;20042;-55
2024/01/24 22:29:04;;;;;;;8.02;4.50;;;;;;;20.98;53.33;99219.75;5010847;28;20137;-55
2024/01/24 22:31:30;;;;;;;8.65;4.57;;;;;;;20.96;53.34;99201.25;5010379;28;20137;-54
2024/01/24 22:33:57;;;;;;;9.13;4.43;;;;;;;20.97;53.23;99207.41;5010387;28;20072;-54
2024/01/24 22:36:24;;;;;;;8.68;4.80;;;;;;;20.95;53.46;99203.97;5010331;28;20137;-54
2024/01/24 22:38:50;;;;;;;10.18;4.57;;;;;;;20.96;53.49;99214.50;5010546;28;20415;-55
2024/01/24 22:41:17;;;;;;;8.73;4.93;;;;;;;20.96;53.45;99211.84;5010250;28;20141;-55
2024/01/24 22:43:45;;;;;;;8.32;4.53;;;;;;;20.96;53.58;99203.91;5010414;28;20137;-54
2024/01/24 22:46:11;;;;;;;8.25;4.60;;;;;;;20.95;53.34;99203.97;5010219;28;20415;-54
2024/01/24 22:48:38;;;;;;;8.10;4.45;;;;;;;20.94;53.33;99195.19;5010420;28;20136;-54
2024/01/24 22:51:05;;;;;;;9.43;4.43;;;;;;;20.94;53.52;99197.84;5010425;28;20070;-54
2024/01/24 22:53:32;;;;;;;8.15;4.60;;;;;;;20.95;53.56;99220.72;5011443;28;20653;-54
2024/01/24 22:55:59;;;;;;;8.88;4.55;;;;;;;20.95;53.54;99225.16;5014494;28;20041;-54
2024/01/24 22:58:26;;;;;;;10.30;5.00;;;;;;;20.95;53.68;99209.28;5030028;28;20533;-54
2024/01/24 23:00:54;;;;;;;8.85;4.63;;;;;;;20.96;53.65;99213.66;5029874;28;20046;-55
2024/01/24 23:03:20;;;;;;;9.45;4.57;;;;;;;20.94;53.73;99216.38;5029968;28;20137;-54
2024/01/24 23:05:47;;;;;;;8.82;4.63;;;;;;;20.95;53.68;99203.97;5028505;28;20049;-54
2024/01/24 23:08:13;;;;;;;8.65;4.63;;;;;;;20.94;53.74;99197.84;5029946;28;20121;-55
2024/01/24 23:10:39;;;;;;;9.38;4.50;;;;;;;20.94;53.70;99213.72;5029514;28;20487;-55
2024/01/24 23:13:06;;;;;;;7.90;4.45;;;;;;;20.94;53.70;99207.59;5029420;28;20060;-54
2024/01/24 23:15:32;;;;;;;8.63;4.72;;;;;;;20.94;53.83;99218.19;5016135;28;20134;-54
2024/01/24 23:18:00;;;;;;;7.45;4.25;;;;;;;20.93;53.57;99214.66;5047101;28;20073;-54
2024/01/24 23:20:27;;;;;;;8.27;4.70;;;;;;;20.94;53.71;99212.88;5018666;28;20060;-54
2024/01/24 23:22:54;;;;;;;7.78;4.80;;;;;;;20.92;53.58;99215.59;5073923;28;20504;-54
2024/01/24 23:25:20;;;;;;;9.88;4.60;;;;;;;20.93;53.63;99200.56;5009836;28;20046;-55
2024/01/24 23:27:47;;;;;;;7.93;4.60;;;;;;;20.92;53.70;99190.88;5061619;28;20050;-54
2024/01/24 23:30:14;;;;;;;8.02;4.20;;;;;;;20.92;53.59;99188.22;5112798;28;20462;-54
2024/01/24 23:32:42;;;;;;;8.88;4.80;;;;;;;20.91;53.75;99179.44;5112654;28;20062;-54
2024/01/24 23:35:10;;;;;;;9.20;4.53;;;;;;;20.92;53.76;99172.34;5112499;28;20058;-54
2024/01/24 23:37:36;;;;;;;8.50;4.80;;;;;;;20.91;53.74;99175.94;5112607;28;20142;-54
2024/01/24 23:40:03;;;;;;;8.50;4.47;;;;;;;20.91;53.68;99178.59;5056922;28;20140;-56
2024/01/24 23:42:30;;;;;;;8.52;4.28;;;;;;;20.90;53.77;99179.50;5009353;28;20140;-55
2024/01/24 23:44:57;;;;;;;8.48;4.35;;;;;;;20.89;53.71;99183.94;5009333;28;20048;-56
2024/01/24 23:47:23;;;;;;;8.32;4.25;;;;;;;20.89;53.80;99186.59;5009397;28;20077;-55
2024/01/24 23:49:51;;;;;;;9.82;4.60;;;;;;;20.89;53.74;99173.34;5009363;28;20144;-55
2024/01/24 23:52:19;;;;;;;8.25;4.60;;;;;;;20.89;53.72;99168.06;5009204;28;20096;-55
2024/01/24 23:54:46;;;;;;;7.93;4.20;;;;;;;20.89;53.77;99173.34;5009088;28;20121;-53
2024/01/24 23:57:13;;;;;;;8.32;4.72;;;;;;;20.89;53.78;99168.06;5009247;28;20410;-54
2024/01/24 23:59:39;;;;;;;9.02;4.57;;;;;;;20.88;53.78;99176.97;5008975;28;20046;-54
